createdAt,value
2019-02-08T00:02:07.907Z,6.93
2019-02-08T00:06:10.351Z,7.10
2019-02-08T00:10:13.003Z,7.23
2019-02-08T00:14:15.806Z,7.17
2019-02-08T00:18:18.205Z,7.37
2019-02-08T00:22:20.638Z,6.87
2019-02-08T00:26:23.232Z,7.30
2019-02-08T00:30:26.168Z,7.30
2019-02-08T00:34:28.788Z,7.33
2019-02-08T00:38:31.358Z,8.70
2019-02-08T00:42:33.794Z,9.37
2019-02-08T00:46:36.151Z,10.13
2019-02-08T00:50:38.962Z,11.43
2019-02-08T00:54:41.318Z,12.13
2019-02-08T00:58:43.820Z,12.80
2019-02-08T01:02:47.240Z,12.83
2019-02-08T01:06:49.765Z,14.00
2019-02-08T01:10:52.226Z,16.77
2019-02-08T01:14:54.742Z,17.93
2019-02-08T01:18:57.204Z,16.33
2019-02-08T01:23:00.695Z,18.53
2019-02-08T01:27:03.153Z,17.97
2019-02-08T01:31:05.736Z,17.87
2019-02-08T01:35:09.042Z,17.40
2019-02-08T01:39:11.608Z,18.57
2019-02-08T01:43:13.940Z,19.27
2019-02-08T01:47:16.376Z,21.43
2019-02-08T01:51:21.137Z,20.17
2019-02-08T01:55:23.683Z,19.60
2019-02-08T01:59:26.194Z,20.50
2019-02-08T02:03:28.729Z,20.87
2019-02-08T02:07:31.194Z,21.63
2019-02-08T02:11:33.639Z,20.20
2019-02-08T02:15:36.080Z,21.40
2019-02-08T02:19:38.658Z,21.37
2019-02-08T02:23:41.037Z,19.63
2019-02-08T02:27:43.671Z,20.00
2019-02-08T02:31:45.990Z,20.43
2019-02-08T02:35:48.406Z,19.50
2019-02-08T02:39:50.858Z,17.57
2019-02-08T02:43:53.242Z,16.60
2019-02-08T02:47:55.831Z,18.17
2019-02-08T02:51:58.643Z,18.07
2019-02-08T02:56:01.118Z,19.03
2019-02-08T03:00:03.687Z,19.17
2019-02-08T03:04:06.708Z,18.53
2019-02-08T03:08:10.089Z,18.07
2019-02-08T03:12:12.414Z,16.53
2019-02-08T03:16:14.812Z,14.63
2019-02-08T03:20:19.404Z,14.67
2019-02-08T03:24:21.877Z,13.63
2019-02-08T03:28:24.260Z,12.40
2019-02-08T03:32:27.269Z,11.53
2019-02-08T03:36:29.823Z,13.07
2019-02-08T03:40:32.766Z,12.07
2019-02-08T03:44:35.451Z,15.67
2019-02-08T03:48:37.822Z,15.70
2019-02-08T03:52:40.390Z,17.97
2019-02-08T03:56:42.951Z,18.33
2019-02-08T04:01:00.020Z,19.17
2019-02-08T04:05:02.398Z,21.00
2019-02-08T04:09:05.748Z,21.43
2019-02-08T04:13:08.661Z,20.33
2019-02-08T04:17:11.303Z,20.83
2019-02-08T04:21:13.755Z,20.57
2019-02-08T04:25:20.609Z,21.23
2019-02-08T04:29:24.338Z,23.37
2019-02-08T04:33:26.724Z,22.03
2019-02-08T04:37:29.867Z,21.53
2019-02-08T04:41:32.183Z,23.03
2019-02-08T04:45:34.683Z,23.17
2019-02-08T04:49:36.996Z,23.40
2019-02-08T04:53:39.816Z,24.27
2019-02-08T04:57:42.690Z,24.13
2019-02-08T05:01:45.356Z,26.67
2019-02-08T05:05:48.009Z,25.50
2019-02-08T05:09:50.420Z,26.73
2019-02-08T05:13:52.760Z,24.03
2019-02-08T05:17:55.239Z,27.07
2019-02-08T05:21:57.585Z,27.90
2019-02-08T05:26:00.812Z,25.93
2019-02-08T05:30:03.170Z,26.03
2019-02-08T05:34:05.781Z,26.50
2019-02-08T05:38:08.390Z,24.67
2019-02-08T05:42:10.943Z,27.83
2019-02-08T05:46:13.449Z,26.97
2019-02-08T05:50:18.920Z,26.17
2019-02-08T05:54:21.288Z,28.53
2019-02-08T05:58:25.657Z,28.37
2019-02-08T06:02:28.029Z,28.37
2019-02-08T06:06:30.657Z,26.80
2019-02-08T06:10:33.277Z,28.27
2019-02-08T06:14:35.884Z,27.57
2019-02-08T06:18:38.218Z,26.73
2019-02-08T06:22:40.726Z,28.93
2019-02-08T06:26:43.046Z,27.73
2019-02-08T06:30:45.675Z,27.87
2019-02-08T06:34:48.121Z,26.73
2019-02-08T06:38:50.536Z,26.97
2019-02-08T06:42:53.804Z,27.00
2019-02-08T06:46:56.169Z,27.63
2019-02-08T06:50:58.507Z,27.40
2019-02-08T06:55:00.895Z,28.20
2019-02-08T06:59:33.262Z,28.73
2019-02-08T07:03:52.162Z,25.73
2019-02-08T07:08:22.788Z,28.33
2019-02-08T07:12:37.270Z,27.43
2019-02-08T07:16:57.085Z,24.87
2019-02-08T07:21:23.970Z,24.40
2019-02-08T07:25:47.915Z,25.70
2019-02-08T07:30:11.991Z,26.20
2019-02-08T07:34:45.490Z,27.47
2019-02-08T07:39:22.304Z,27.40
2019-02-08T07:43:43.599Z,24.23
2019-02-08T07:48:05.285Z,26.13
2019-02-08T07:52:21.979Z,29.03
2019-02-08T07:56:45.169Z,26.73
2019-02-08T08:01:06.865Z,26.43
2019-02-08T08:05:32.123Z,25.13
2019-02-08T08:09:50.906Z,26.87
2019-02-08T08:14:30.708Z,25.50
2019-02-08T08:18:55.571Z,26.27
2019-02-08T08:23:11.417Z,24.47
2019-02-08T08:27:32.124Z,25.40
2019-02-08T08:31:46.472Z,26.30
2019-02-08T08:36:25.471Z,27.90
2019-02-08T08:41:04.079Z,28.17
2019-02-08T08:45:42.825Z,26.77
2019-02-08T08:50:30.196Z,28.63
2019-02-08T08:55:27.514Z,30.10
2019-02-08T09:00:09.475Z,28.50
2019-02-08T09:04:48.087Z,32.13
2019-02-08T09:09:26.937Z,32.13
2019-02-08T09:14:25.190Z,29.60
2019-02-08T09:19:08.220Z,31.47
2019-02-08T09:23:56.841Z,30.60
2019-02-08T09:28:34.422Z,32.37
2019-02-08T09:33:02.668Z,32.33
2019-02-08T09:37:58.417Z,30.37
2019-02-08T09:42:53.503Z,31.40
2019-02-08T09:47:42.616Z,30.97
2019-02-08T09:52:39.988Z,31.87
2019-02-08T09:57:38.093Z,33.90
2019-02-08T10:02:35.966Z,29.73
2019-02-08T10:06:59.249Z,26.87
2019-02-08T10:11:34.041Z,34.63
2019-02-08T10:16:12.418Z,26.83
2019-02-08T10:21:06.918Z,25.63
2019-02-08T10:25:45.040Z,23.43
2019-02-08T10:30:41.184Z,23.47
2019-02-08T10:35:24.530Z,26.03
2019-02-08T10:40:16.885Z,27.93
2019-02-08T10:44:58.590Z,28.97
2019-02-08T10:49:40.713Z,29.90
2019-02-08T10:54:09.715Z,27.90
2019-02-08T10:58:47.835Z,26.47
2019-02-08T11:03:29.070Z,23.47
2019-02-08T11:08:08.487Z,20.70
2019-02-08T11:13:03.807Z,20.97
2019-02-08T11:17:58.853Z,17.80
2019-02-08T11:22:01.582Z,18.50
2019-02-08T11:26:05.129Z,18.43
2019-02-08T11:30:11.597Z,21.53
2019-02-08T11:34:14.517Z,19.33
2019-02-08T11:38:17.196Z,19.63
2019-02-08T11:42:19.790Z,19.40
2019-02-08T11:46:22.523Z,18.90
2019-02-08T11:50:25.715Z,17.43
2019-02-08T11:54:28.485Z,19.87
2019-02-08T11:58:31.178Z,19.97
2019-02-08T12:02:40.352Z,19.37
2019-02-08T12:06:40.152Z,23.43
2019-02-08T12:10:43.198Z,22.40
2019-02-08T12:14:45.986Z,24.47
2019-02-08T12:18:48.721Z,21.87
2019-02-08T12:22:51.353Z,28.10
2019-02-08T12:26:53.972Z,26.70
2019-02-08T12:30:56.603Z,29.03
2019-02-08T12:34:59.351Z,30.60
2019-02-08T12:39:02.007Z,31.47
2019-02-08T12:43:06.573Z,32.63
2019-02-08T12:47:09.287Z,30.80
2019-02-08T12:51:13.125Z,30.13
2019-02-08T12:55:18.408Z,30.13
2019-02-08T12:59:21.228Z,30.63
2019-02-08T13:03:23.823Z,36.60
2019-02-08T13:07:26.933Z,26.43
2019-02-08T13:11:29.762Z,24.17
2019-02-08T13:15:32.788Z,23.60
2019-02-08T13:19:35.818Z,24.70
2019-02-08T13:23:38.643Z,27.10
2019-02-08T13:27:41.852Z,27.63
2019-02-08T13:31:44.328Z,25.60
2019-02-08T13:35:48.093Z,25.70
2019-02-08T13:39:50.515Z,22.57
2019-02-08T13:43:53.212Z,21.80
2019-02-08T13:47:56.313Z,21.93
2019-02-08T13:51:58.721Z,22.07
2019-02-08T13:56:12.906Z,20.50
2019-02-08T14:00:25.183Z,19.73
2019-02-08T14:04:27.989Z,19.87
2019-02-08T14:08:30.824Z,19.17
2019-02-08T14:12:33.559Z,21.07
2019-02-08T14:16:36.549Z,18.33
2019-02-08T14:20:39.649Z,18.63
2019-02-08T14:24:42.260Z,19.20
2019-02-08T14:28:45.153Z,15.57
2019-02-08T14:32:47.899Z,15.30
2019-02-08T14:36:50.663Z,14.07
2019-02-08T14:40:53.531Z,15.37
2019-02-08T14:44:56.622Z,15.00
2019-02-08T14:48:59.384Z,15.10
2019-02-08T14:53:03.739Z,14.00
2019-02-08T14:57:16.307Z,13.87
2019-02-08T15:01:12.904Z,13.37
2019-02-08T15:05:16.430Z,13.23
2019-02-08T15:09:20.162Z,11.37
2019-02-08T15:13:23.151Z,10.83
2019-02-08T15:17:26.449Z,9.83
2019-02-08T15:21:29.234Z,7.10
2019-02-08T15:25:32.519Z,7.27
2019-02-08T15:29:35.464Z,8.83
2019-02-08T15:33:39.186Z,7.30
2019-02-08T15:37:41.839Z,8.37
2019-02-08T15:41:44.454Z,8.27
2019-02-08T15:45:50.860Z,6.53
2019-02-08T15:49:53.793Z,7.03
2019-02-08T15:53:56.889Z,6.00
2019-02-08T15:58:00.019Z,5.17
2019-02-08T16:02:03.849Z,5.17
2019-02-08T16:06:07.114Z,4.00
2019-02-08T16:10:10.377Z,4.40
2019-02-08T16:14:12.958Z,5.07
2019-02-08T16:18:19.369Z,4.00
2019-02-08T16:22:22.649Z,15.93
2019-02-08T16:26:25.255Z,12.67
2019-02-08T16:30:30.658Z,5.17
2019-02-08T16:34:33.395Z,4.17
2019-02-08T16:38:36.406Z,4.97
2019-02-08T16:42:39.094Z,5.37
2019-02-08T16:46:45.719Z,5.00
2019-02-08T16:50:50.970Z,6.57
2019-02-08T16:54:57.453Z,6.70
2019-02-08T16:59:00.720Z,5.20
2019-02-08T17:03:08.079Z,5.17
2019-02-08T17:07:10.820Z,5.00
2019-02-08T17:11:18.118Z,4.93
2019-02-08T17:15:41.186Z,4.40
2019-02-08T17:19:47.840Z,5.87
2019-02-08T17:23:52.470Z,4.73
2019-02-08T17:28:00.469Z,4.20
2019-02-08T17:32:03.621Z,4.83
2019-02-08T17:36:10.020Z,6.63
2019-02-08T17:40:18.680Z,3.30
2019-02-08T17:44:21.556Z,3.10
2019-02-08T17:48:24.330Z,3.33
2019-02-08T17:52:27.341Z,3.03
2019-02-08T17:56:30.046Z,3.67
2019-02-08T18:00:39.563Z,3.50
2019-02-08T18:04:42.448Z,3.27
2019-02-08T18:08:46.864Z,3.30
2019-02-08T18:12:59.970Z,2.70
2019-02-08T18:17:05.038Z,2.47
2019-02-08T18:21:13.662Z,2.83
2019-02-08T18:25:16.795Z,1.77
2019-02-08T18:29:19.470Z,2.53
2019-02-08T18:33:22.254Z,3.87
2019-02-08T18:37:24.994Z,5.70
2019-02-08T18:41:27.726Z,2.60
2019-02-08T18:45:30.727Z,2.47
2019-02-08T18:49:33.668Z,2.17
2019-02-08T18:53:36.336Z,2.33
2019-02-08T18:57:39.225Z,2.23
2019-02-08T19:01:41.934Z,2.20
2019-02-08T19:05:44.775Z,2.47
2019-02-08T19:09:47.702Z,3.20
2019-02-08T19:13:50.538Z,1.70
2019-02-08T19:17:53.431Z,1.60
2019-02-08T19:21:56.926Z,1.83
2019-02-08T19:25:59.803Z,1.73
2019-02-08T19:30:02.582Z,1.77
2019-02-08T19:34:05.514Z,2.03
2019-02-08T19:38:09.227Z,1.90
2019-02-08T19:42:11.965Z,2.23
2019-02-08T19:46:14.784Z,1.63
2019-02-08T19:50:21.849Z,1.60
2019-02-08T19:54:25.470Z,1.93
2019-02-08T19:58:34.234Z,1.20
2019-02-08T20:02:33.311Z,1.30
2019-02-08T20:06:35.937Z,1.53
2019-02-08T20:10:40.665Z,1.53
2019-02-08T20:14:43.385Z,1.30
2019-02-08T20:18:46.400Z,1.30
2019-02-08T20:22:50.750Z,0.93
2019-02-08T20:26:54.197Z,1.17
2019-02-08T20:30:56.889Z,1.30
2019-02-08T20:34:59.670Z,0.90
2019-02-08T20:39:02.389Z,1.40
2019-02-08T20:43:06.791Z,1.00
2019-02-08T20:47:09.495Z,0.97
2019-02-08T20:51:12.454Z,1.00
2019-02-08T20:55:16.363Z,0.93
2019-02-08T20:59:19.170Z,0.73
2019-02-08T21:03:23.378Z,0.70
2019-02-08T21:07:26.051Z,0.83
2019-02-08T21:11:28.822Z,0.40
2019-02-08T21:15:31.741Z,0.70
2019-02-08T21:19:34.516Z,0.80
2019-02-08T21:23:40.329Z,0.30
2019-02-08T21:27:43.079Z,0.90
2019-02-08T21:31:45.838Z,0.30
2019-02-08T21:35:49.618Z,0.37
2019-02-08T21:39:52.758Z,0.33
2019-02-08T21:43:55.637Z,0.20
2019-02-08T21:47:58.773Z,0.50
2019-02-08T21:52:01.700Z,0.23
2019-02-08T21:56:05.179Z,0.30
2019-02-08T22:00:15.885Z,0.30
2019-02-08T22:04:19.114Z,0.27
2019-02-08T22:08:21.878Z,0.30
2019-02-08T22:12:24.723Z,0.37
2019-02-08T22:16:27.456Z,0.30
2019-02-08T22:20:30.609Z,0.30
2019-02-08T22:24:33.391Z,0.30
2019-02-08T22:28:35.873Z,0.33
2019-02-08T22:32:38.766Z,0.40
2019-02-08T22:36:43.303Z,0.40
2019-02-08T22:40:46.056Z,0.40
2019-02-08T22:44:49.064Z,0.40
2019-02-08T22:48:51.643Z,0.40
2019-02-08T22:52:54.395Z,0.50
2019-02-08T22:56:57.154Z,0.30
2019-02-08T23:01:29.554Z,0.30
2019-02-08T23:05:32.416Z,0.63
2019-02-08T23:09:35.209Z,0.60
2019-02-08T23:13:38.023Z,0.80
2019-02-08T23:17:40.909Z,0.80
2019-02-08T23:21:43.655Z,1.00
2019-02-08T23:25:46.873Z,0.87
2019-02-08T23:29:50.939Z,0.73
2019-02-08T23:33:53.887Z,0.50
2019-02-08T23:37:56.591Z,0.90
2019-02-08T23:41:59.467Z,0.50
2019-02-08T23:46:02.299Z,0.90
2019-02-08T23:50:05.646Z,1.10
2019-02-08T23:54:08.422Z,1.17
2019-02-08T23:58:10.947Z,0.93
